Flight Track Log - Related Links

Times and Time Zones

All times are in EDT time to prevent confusion due to time zone crossing. See the TCF3494 flight status page for this flight to view local times or setup timezone preferences in your user account.

Time Position Orientation Groundspeed Altitude Reporting Facility
EDT Latitude Longitude Course Direction KTS MPH feet Rate Location/Type
Tue 07:52:55 PM 40.7333 -73.8333 299° West 178 205 2,300  Level New York TRACON
Tue 07:53:55 PM 40.7667 -73.7833 49° Northeast 204 235 4,400 2,700 Climbing New York TRACON
Tue 07:54:55 PM 40.8333 -73.7667 11° North 257 296 7,700 3,421 Climbing New York TRACON
Tue 07:55:00 PM 40.9340 -74.2345 304° West  Level FlightAware Approximate
Tue 07:55:49 PM 40.8667 -73.8333 303° West 278 320 10,900  Level New York TRACON
Tue 07:56:00 PM 40.9818 -74.3303 304° West  Level FlightAware Approximate
Tue 07:57:00 PM 41.0240 -74.4307 299° West  Level FlightAware Approximate
Tue 07:57:29 PM 40.9492 -73.9800 307° West 316 364 14,800  Level New York Center
Tue 07:58:00 PM 41.0659 -74.5314 299° West  Level FlightAware Approximate
Tue 07:58:27 PM 41.0050 -74.0789 307° West 316 364 15,000  Level New York Center
Tue 07:59:28 PM 41.0544 -74.1692 306° West 316 364 15,000  Level New York Center
Tue 08:00:29 PM 41.0847 -74.2700 292° West 298 343 15,000 202 Level New York Center
Tue 08:01:27 PM 41.0775 -74.3686 264° West 287 330 15,400 500 Climbing New York Center
Tue 08:02:29 PM 41.1028 -74.4994 284° West 321 369 16,000 393 Climbing New York Center
Tue 08:03:29 PM 41.1219 -74.6106 283° West 345 397 16,200 1,350 Climbing New York Center
Tue 08:04:29 PM 41.1592 -74.7478 290° West 355 409 18,700 2,746 Climbing New York Center
Tue 08:05:27 PM 41.2036 -74.8469 301° West 355 409 21,600 2,723 Climbing New York Center
Tue 08:06:28 PM 41.2536 -74.9658 299° West 361 415 24,100 2,410 Climbing New York Center
Tue 08:07:29 PM 41.3039 -75.0794 301° West 366 421 26,500 2,331 Climbing New York Center
Tue 08:08:29 PM 41.3536 -75.1958 300° West 366 421 28,800 1,881 Climbing New York Center
Tue 08:09:27 PM 41.4017 -75.3042 301° West 366 421 30,200 1,261 Climbing New York Center
Tue 08:10:28 PM 41.4511 -75.4208 300° West 366 421 31,300 787 Climbing New York Center
Tue 08:11:29 PM 41.4942 -75.5486 294° West 366 421 31,800 508 Climbing New York Center
Tue 08:12:26 PM 41.5403 -75.6903 294° West 371 427 32,300 908 Climbing New York Center
Tue 08:13:28 PM 41.5725 -75.8147 289° West 384 442 33,600 1,400 Climbing New York Center
Tue 08:14:26 PM 41.6086 -75.9478 290° West 384 442 35,100 1,261 Climbing New York Center
Tue 08:15:27 PM 41.6464 -76.0814 291° West 384 442 36,100 893 Climbing New York Center
Tue 08:16:27 PM 41.6861 -76.2150 292° West 384 442 36,900 689 Climbing New York Center
Tue 08:17:29 PM 41.7217 -76.3486 290° West 384 442 37,500 541 Climbing New York Center
Tue 08:18:29 PM 41.7608 -76.4881 291° West 389 448 38,000 256 Climbing New York Center
Tue 08:19:26 PM 41.8017 -76.6333 291° West 389 448 38,000  Level New York Center
Tue 08:20:27 PM 41.8386 -76.7675 290° West 389 448 38,000 -347 Level New York Center
Tue 08:21:27 PM 41.8753 -76.9047 290° West 394 453 37,300 -1,099 Descending New York Center
Tue 08:22:38 PM 41.9164 -77.0614 289° West 392 451 35,600 -1,603 Descending Cleveland Center
Tue 08:23:38 PM 41.9492 -77.1797 290° West 364 419 33,800 -1,650 Descending Cleveland Center
Tue 08:24:38 PM 41.9839 -77.3008 291° West 352 405 32,300 -900 Descending Cleveland Center
Tue 08:25:38 PM 42.0167 -77.4247 290° West 352 405 32,000 -150 Descending Cleveland Center
Tue 08:26:38 PM 42.0472 -77.5519 288° West 352 405 32,000  Level Cleveland Center
Tue 08:27:38 PM 42.0839 -77.6789 291° West 358 412 32,000  Level Cleveland Center
Tue 08:28:38 PM 42.1161 -77.8064 289° West 358 412 32,000  Level Cleveland Center
Tue 08:29:38 PM 42.1503 -77.9308 290° West 358 412 32,000  Level Cleveland Center
Tue 08:30:38 PM 42.1825 -78.0611 288° West 358 412 32,000  Level Cleveland Center
Tue 08:31:38 PM 42.2164 -78.1861 290° West 358 412 32,000  Level Cleveland Center
Tue 08:32:38 PM 42.2483 -78.3167 288° West 358 412 32,000  Level Cleveland Center
Tue 08:33:38 PM 42.2819 -78.4447 290° West 363 418 32,000  Level Cleveland Center
Tue 08:34:38 PM 42.3156 -78.5756 289° West 363 418 32,000  Level Cleveland Center
Tue 08:35:38 PM 42.3492 -78.7036 290° West 363 418 32,000  Level Cleveland Center
Tue 08:36:38 PM 42.3822 -78.8292 290° West 363 418 32,000  Level Cleveland Center
Tue 08:37:38 PM 42.4114 -78.9606 287° West 363 418 32,000  Level Cleveland Center
Tue 08:38:38 PM 42.4442 -79.0892 289° West 363 418 32,000  Level Cleveland Center
Tue 08:39:38 PM 42.4792 -79.2206 290° West 363 418 32,000  Level Cleveland Center
Tue 08:40:38 PM 42.4953 -79.3528 279° West 358 412 32,000  Level Cleveland Center
Tue 08:41:38 PM 42.5008 -79.4933 273° West 358 412 32,000  Level Cleveland Center
Tue 08:42:38 PM 42.5106 -79.6283 276° West 364 419 32,000  Level Cleveland Center
Tue 08:43:38 PM 42.5178 -79.7692 274° West 369 425 32,000  Level Cleveland Center
Tue 08:44:38 PM 42.5228 -79.9042 273° West 369 425 32,000  Level Cleveland Center
Tue 08:45:38 PM 42.5256 -80.0422 272° West 369 425 32,000  Level Cleveland Center
Tue 08:46:38 PM 42.5325 -80.1661 274° West 364 419 32,000  Level Cleveland Center
Tue 08:47:38 PM 42.5369 -80.3042 273° West 364 419 32,000  Level Cleveland Center
Tue 08:48:38 PM 42.5436 -80.4394 274° West 364 419 32,000  Level Cleveland Center
Tue 08:49:38 PM 42.5478 -80.5803 272° West 369 425 32,000  Level Cleveland Center
Tue 08:50:38 PM 42.5539 -80.7156 274° West 361 415 32,000  Level Cleveland Center
Tue 08:51:38 PM 42.5600 -80.8567 273° West 366 421 32,000  Level Cleveland Center
Tue 08:52:38 PM 42.5658 -80.9919 273° West 366 421 32,000  Level Cleveland Center
Tue 08:53:38 PM 42.5694 -81.1300 272° West 366 421 32,000  Level Cleveland Center
Tue 08:54:38 PM 42.5728 -81.2825 272° West 366 421 32,000  Level Cleveland Center
Tue 08:55:38 PM 42.5781 -81.4233 273° West 371 427 32,000  Level Cleveland Center
Tue 08:56:38 PM 42.6000 -81.5533 283° West 365 420 32,000  Level Cleveland Center
Tue 08:57:38 PM 42.6217 -81.6864 283° West 365 420 32,000  Level Cleveland Center
Tue 08:58:38 PM 42.6433 -81.8025 284° West 371 427 32,000  Level Cleveland Center
Tue 08:59:38 PM 42.6669 -81.9414 283° West 371 427 32,000  Level Cleveland Center
Tue 09:00:38 PM 42.6903 -82.0747 283° West 371 427 32,000  Level Cleveland Center
Tue 09:01:38 PM 42.7133 -82.2108 283° West 371 427 32,000  Level Cleveland Center
Tue 09:02:38 PM 42.7319 -82.3556 280° West 376 433 32,000  Level Cleveland Center
Tue 09:03:38 PM 42.7444 -82.4944 277° West 376 433 32,000  Level Cleveland Center
Tue 09:04:38 PM 42.7544 -82.6361 276° West 376 433 32,000  Level Cleveland Center
Tue 09:05:38 PM 42.7644 -82.7778 276° West 376 433 32,000  Level Cleveland Center
Tue 09:06:38 PM 42.7742 -82.9194 275° West 381 438 32,000  Level Cleveland Center
Tue 09:07:38 PM 42.7858 -83.0614 276° West 381 438 32,000  Level Cleveland Center
Tue 09:08:38 PM 42.7953 -83.2006 275° West 381 438 32,000  Level Cleveland Center
Tue 09:09:38 PM 42.8044 -83.3425 275° West 381 438 32,000  Level Cleveland Center
Tue 09:10:38 PM 42.8156 -83.4844 276° West 381 438 32,000  Level Cleveland Center
Tue 09:11:38 PM 42.8244 -83.6236 275° West 381 438 32,000  Level Cleveland Center
Tue 09:12:38 PM 42.8331 -83.7683 275° West 381 438 32,000  Level Cleveland Center
Tue 09:13:38 PM 42.8417 -83.9075 275° West 381 438 32,000  Level Cleveland Center
Tue 09:14:38 PM 42.8519 -84.0525 276° West 381 438 32,000  Level Cleveland Center
Tue 09:15:38 PM 42.8600 -84.1919 275° West 386 444 32,000  Level Cleveland Center
Tue 09:17:11 PM 42.8750 -84.4189 275° West 377 434 32,000  Level Chicago Center
Tue 09:18:13 PM 42.8831 -84.5611 274° West 378 435 32,000  Level Chicago Center
Tue 09:19:15 PM 42.8711 -84.7000 263° West 371 427 32,000  Level Chicago Center
Tue 09:20:17 PM 42.8575 -84.8400 262° West 373 429 32,000  Level Chicago Center
Tue 09:21:19 PM 42.8433 -84.9800 262° West 374 430 32,000  Level Chicago Center
Tue 09:22:21 PM 42.8253 -85.1458 262° West 369 425 32,000  Level Chicago Center
Tue 09:23:23 PM 42.8100 -85.2844 262° West 370 426 32,000  Level Chicago Center
Tue 09:24:25 PM 42.7947 -85.4244 262° West 373 429 32,000 -823 Level Chicago Center
Tue 09:25:27 PM 42.7758 -85.5636 260° West 374 430 30,300 -1,790 Descending Chicago Center
Tue 09:26:29 PM 42.7503 -85.6961 255° West 366 421 28,300 -1,887 Descending Chicago Center
Tue 09:27:31 PM 42.7272 -85.8278 257° West 358 412 26,400 -1,790 Descending Chicago Center
Tue 09:28:33 PM 42.7050 -85.9547 257° West 349 402 24,600 -1,742 Descending Chicago Center
Tue 09:29:35 PM 42.6811 -86.0789 255° West 341 392 22,800 -1,839 Descending Chicago Center
Tue 09:30:37 PM 42.6556 -86.2214 256° West 326 375 20,800 -1,756 Descending Chicago Center
Tue 09:31:38 PM 42.6336 -86.3333 255° West 310 357 19,200 -1,415 Descending Chicago Center
Tue 09:32:40 PM 42.6144 -86.4408 256° West 297 342 17,900 -1,210 Descending Chicago Center
Tue 09:33:42 PM 42.5936 -86.5461 255° West 292 336 16,700 -1,113 Descending Chicago Center
Tue 09:34:44 PM 42.5736 -86.6514 256° West 288 331 15,600 -1,210 Descending Chicago Center
Tue 09:35:46 PM 42.5533 -86.7578 256° West 291 335 14,200 -1,258 Descending Chicago Center
Tue 09:36:48 PM 42.5231 -86.8594 248° West 290 334 13,000 -1,317 Descending Chicago Center
Tue 09:37:49 PM 42.4908 -86.9839 251° West 291 335 11,500 -1,366 Descending Chicago Center
Tue 09:38:51 PM 42.4633 -87.0831 249° West 284 327 10,200 -823 Descending Chicago Center
Tue 09:39:53 PM 42.4403 -87.1683 250° West 242 278 9,800 -484 Descending Chicago Center
Tue 09:40:55 PM 42.4206 -87.2381 249° West 205 236 9,200 -1,024 Descending Chicago Center
Tue 09:41:56 PM 42.4006 -87.3097 249° West 204 235 7,700 -1,268 Descending Chicago Center
Tue 09:42:58 PM 42.3772 -87.3975 250° West 212 244 6,600 -823 Descending Chicago Center
Tue 09:44:00 PM 42.3567 -87.4672 248° West 200 230 6,000 -290 Descending Chicago Center
Tue 09:45:02 PM 42.3358 -87.5253 244° Southwest 178 205 6,000  Level Chicago Center
Tue 09:46:03 PM 42.2875 -87.5181 174° South 183 211 6,000  Level Chicago Center
Tue 09:47:05 PM 42.2367 -87.5072 171° South 184 212 6,000 -435 Level Chicago Center
Tue 09:48:07 PM 42.1861 -87.4975 172° South 184 212 5,100 -968 Descending Chicago Center
Tue 09:49:09 PM 42.1306 -87.4600 153° Southeast 195 224 4,000 -537 Descending Chicago Center
Tue 09:50:10 PM 42.0833 -87.4000 137° Southeast 206 237 4,000  Level Chicago TRACON
Tue 09:51:10 PM 42.0333 -87.3833 166° South 199 229 4,000  Level Chicago TRACON
Tue 09:52:05 PM 41.9833 -87.3833 180° South 194 223 4,000  Level Chicago TRACON
Tue 09:53:05 PM 41.9833 -87.4333 270° West 162 186 4,000  Level Chicago TRACON
Tue 09:54:05 PM 41.9833 -87.5000 270° West 168 193 4,000  Level Chicago TRACON
Tue 09:55:05 PM 41.9833 -87.5667 270° West 168 193 4,000  Level Chicago TRACON
Tue 09:56:05 PM 41.9833 -87.6167 270° West 168 193 4,000 -100 Level Chicago TRACON
Tue 09:57:05 PM 41.9833 -87.6833 270° West 169 194 3,800 -200 Descending Chicago TRACON

Login

Don't have an account? Register now (free) for customized features, flight alerts, and more!